createdAt,value
2023-04-16T00:00:32.580Z,97168.56
2023-04-16T00:03:04.580Z,97166.66
2023-04-16T00:05:35.937Z,97174.31
2023-04-16T00:08:06.145Z,97176.63
2023-04-16T00:10:37.392Z,97174.72
2023-04-16T00:13:07.397Z,97182.41
2023-04-16T00:15:37.932Z,97189.31
2023-04-16T00:18:09.469Z,97180.03
2023-04-16T00:20:39.744Z,97186.59
2023-04-16T00:23:09.925Z,97189.66
2023-04-16T00:25:40.634Z,97188.50
2023-04-16T00:28:11.385Z,97192.00
2023-04-16T00:30:41.394Z,97186.59
2023-04-16T00:33:12.988Z,97191.25
2023-04-16T00:35:43.581Z,97191.66
2023-04-16T00:38:14.172Z,97195.47
2023-04-16T00:40:43.905Z,97187.75
2023-04-16T00:43:13.466Z,97178.88
2023-04-16T00:45:43.284Z,97184.72
2023-04-16T00:48:15.764Z,97185.81
2023-04-16T00:50:46.082Z,97187.72
2023-04-16T00:53:16.366Z,97180.06
2023-04-16T00:55:46.685Z,97188.13
2023-04-16T00:58:18.116Z,97192.34
2023-04-16T01:00:47.791Z,97183.91
2023-04-16T01:03:20.301Z,97195.50
2023-04-16T01:05:51.310Z,97200.47
2023-04-16T01:08:23.929Z,97200.09
2023-04-16T01:10:54.432Z,97207.03
2023-04-16T01:13:25.147Z,97209.69
2023-04-16T01:15:59.785Z,97213.16
2023-04-16T01:18:36.250Z,97212.78
2023-04-16T01:21:09.284Z,97211.22
2023-04-16T01:23:40.469Z,97214.31
2023-04-16T01:26:10.596Z,97225.44
2023-04-16T01:28:43.823Z,97220.06
2023-04-16T01:31:13.832Z,97222.75
2023-04-16T01:33:44.304Z,97218.53
2023-04-16T01:36:17.032Z,97221.19
2023-04-16T01:38:48.462Z,97220.84
2023-04-16T01:41:18.064Z,97223.88
2023-04-16T01:43:48.633Z,97232.38
2023-04-16T01:46:23.037Z,97232.78
2023-04-16T01:49:01.485Z,97230.44
2023-04-16T01:51:33.499Z,97233.91
2023-04-16T01:54:04.068Z,97233.91
2023-04-16T01:56:35.110Z,97224.69
2023-04-16T01:59:07.892Z,97226.22
2023-04-16T02:01:39.604Z,97232.38
2023-04-16T02:04:12.304Z,97236.59
2023-04-16T02:06:46.550Z,97230.06
2023-04-16T02:09:23.021Z,97237.00
2023-04-16T02:11:53.612Z,97236.22
2023-04-16T02:14:26.039Z,97238.50
2023-04-16T02:16:56.688Z,97233.91
2023-04-16T02:19:27.611Z,97243.13
2023-04-16T02:22:01.985Z,97240.84
2023-04-16T02:24:32.480Z,97240.81
2023-04-16T02:27:03.448Z,97246.19
2023-04-16T02:29:33.930Z,97247.34
2023-04-16T02:32:04.288Z,97242.38
2023-04-16T02:34:35.710Z,97242.34
2023-04-16T02:37:06.811Z,97245.06
2023-04-16T02:39:36.634Z,97250.81
2023-04-16T02:42:07.234Z,97248.13
2023-04-16T02:44:37.307Z,97246.97
2023-04-16T02:47:08.257Z,97249.69
2023-04-16T02:49:38.789Z,97256.56
2023-04-16T02:52:10.801Z,97250.78
2023-04-16T02:54:41.912Z,97257.72
2023-04-16T02:57:11.711Z,97256.97
2023-04-16T02:59:42.065Z,97258.50
2023-04-16T03:02:12.653Z,97256.97
2023-04-16T03:04:42.601Z,97255.03
2023-04-16T03:07:14.700Z,97254.28
2023-04-16T03:09:44.835Z,97253.13
2023-04-16T03:12:15.147Z,97258.50
2023-04-16T03:14:45.566Z,97251.22
2023-04-16T03:17:16.219Z,97253.91
2023-04-16T03:19:45.870Z,97257.72
2023-04-16T03:22:17.174Z,97266.59
2023-04-16T03:24:47.143Z,97260.03
2023-04-16T03:27:17.673Z,97270.03
2023-04-16T03:29:49.014Z,97269.66
2023-04-16T03:32:19.271Z,97271.56
2023-04-16T03:34:50.045Z,97281.56
2023-04-16T03:37:24.432Z,97277.34
2023-04-16T03:39:55.336Z,97277.72
2023-04-16T03:42:26.263Z,97282.34
2023-04-16T03:44:56.727Z,97278.50
2023-04-16T03:47:26.585Z,97281.56
2023-04-16T03:49:57.028Z,97281.94
2023-04-16T03:52:29.506Z,97284.66
2023-04-16T03:54:59.994Z,97295.75
2023-04-16T03:57:29.915Z,97295.69
2023-04-16T03:59:59.877Z,97296.03
2023-04-16T04:02:30.056Z,97288.09
2023-04-16T04:05:00.213Z,97289.94
2023-04-16T04:07:32.110Z,97299.53
2023-04-16T04:10:02.140Z,97303.81
2023-04-16T04:12:32.196Z,97302.34
2023-04-16T04:15:02.056Z,97298.50
2023-04-16T04:17:32.386Z,97303.06
2023-04-16T04:20:02.802Z,97298.13
2023-04-16T04:22:34.663Z,97303.81
2023-04-16T04:25:04.839Z,97294.97
2023-04-16T04:27:35.658Z,97306.94
2023-04-16T04:30:06.485Z,97311.16
2023-04-16T04:32:36.358Z,97309.25
2023-04-16T04:35:08.463Z,97310.78
2023-04-16T04:37:40.225Z,97314.63
2023-04-16T04:40:11.667Z,97323.09
2023-04-16T04:42:42.110Z,97331.91
2023-04-16T04:45:13.456Z,97328.44
2023-04-16T04:47:43.116Z,97329.97
2023-04-16T04:50:13.988Z,97331.13
2023-04-16T04:52:46.200Z,97336.53
2023-04-16T04:55:17.352Z,97340.34
2023-04-16T04:57:47.279Z,97334.25
2023-04-16T05:00:19.593Z,97341.91
2023-04-16T05:02:50.687Z,97349.22
2023-04-16T05:05:22.486Z,97360.72
2023-04-16T05:07:54.663Z,97353.06
2023-04-16T05:10:25.389Z,97359.22
2023-04-16T05:12:56.203Z,97358.47
2023-04-16T05:15:26.407Z,97361.47
2023-04-16T05:17:57.241Z,97362.66
2023-04-16T05:20:28.639Z,97362.59
2023-04-16T05:23:00.613Z,97364.59
2023-04-16T05:25:30.449Z,97363.06
2023-04-16T05:28:01.084Z,97365.75
2023-04-16T05:30:30.916Z,97371.91
2023-04-16T05:33:01.036Z,97375.38
2023-04-16T05:35:31.917Z,97371.13
2023-04-16T05:38:04.783Z,97375.41
2023-04-16T05:40:34.716Z,97376.56
2023-04-16T05:43:05.051Z,97376.94
2023-04-16T05:45:39.864Z,97380.03
2023-04-16T05:48:10.741Z,97381.56
2023-04-16T05:50:41.259Z,97377.72
2023-04-16T05:53:14.297Z,97390.78
2023-04-16T05:55:44.940Z,97385.41
2023-04-16T05:58:16.119Z,97388.50
2023-04-16T06:00:46.671Z,97383.06
2023-04-16T06:03:16.937Z,97395.03
2023-04-16T06:05:47.953Z,97399.25
2023-04-16T06:08:20.136Z,97398.47
2023-04-16T06:10:51.778Z,97391.56
2023-04-16T06:13:21.956Z,97396.56
2023-04-16T06:15:53.473Z,97390.00
2023-04-16T06:18:24.516Z,97389.66
2023-04-16T06:20:55.231Z,97396.97
2023-04-16T06:23:27.754Z,97396.16
2023-04-16T06:25:57.961Z,97400.00
2023-04-16T06:28:28.230Z,97403.88
2023-04-16T06:30:58.130Z,97407.72
2023-04-16T06:33:28.508Z,97410.03
2023-04-16T06:35:58.319Z,97419.28
2023-04-16T06:38:30.010Z,97418.50
2023-04-16T06:41:00.350Z,97415.81
2023-04-16T06:43:31.957Z,97415.41
2023-04-16T06:46:02.225Z,97416.16
2023-04-16T06:48:32.198Z,97416.94
2023-04-16T06:51:03.007Z,97407.69
2023-04-16T06:53:35.912Z,97413.09
2023-04-16T06:56:07.720Z,97418.47
2023-04-16T06:58:38.428Z,97410.78
2023-04-16T07:01:08.872Z,97415.00
2023-04-16T07:03:40.196Z,97421.50
2023-04-16T07:06:10.693Z,97426.91
2023-04-16T07:08:42.872Z,97424.56
2023-04-16T07:11:12.836Z,97427.31
2023-04-16T07:13:42.894Z,97429.56
2023-04-16T07:16:13.439Z,97429.97
2023-04-16T07:18:44.119Z,97433.44
2023-04-16T07:21:14.104Z,97439.19
2023-04-16T07:23:45.946Z,97434.59
2023-04-16T07:26:16.259Z,97449.25
2023-04-16T07:28:46.651Z,97438.78
2023-04-16T07:31:16.468Z,97446.81
2023-04-16T07:33:46.324Z,97443.81
2023-04-16T07:36:16.694Z,97454.59
2023-04-16T07:38:48.210Z,97461.44
2023-04-16T07:41:18.414Z,97458.47
2023-04-16T07:43:47.862Z,97454.63
2023-04-16T07:46:17.979Z,97463.09
2023-04-16T07:48:48.006Z,97458.41
2023-04-16T07:51:18.128Z,97460.69
2023-04-16T07:53:52.032Z,97459.91
2023-04-16T07:56:23.071Z,97468.50
2023-04-16T07:59:20.922Z,97467.22
2023-04-16T08:01:55.231Z,97466.94
2023-04-16T08:04:26.625Z,97470.78
2023-04-16T08:06:57.071Z,97478.47
2023-04-16T08:09:30.425Z,97473.88
2023-04-16T08:12:01.592Z,97476.47
2023-04-16T08:14:31.498Z,97486.19
2023-04-16T08:17:02.576Z,97479.56
2023-04-16T08:19:33.174Z,97476.81
2023-04-16T08:22:02.778Z,97479.50
2023-04-16T08:24:34.913Z,97480.59
2023-04-16T08:27:17.749Z,97473.97
2023-04-16T08:29:49.980Z,97484.41
2023-04-16T08:32:20.885Z,97482.97
2023-04-16T08:34:51.749Z,97485.25
2023-04-16T08:37:21.844Z,97478.19
2023-04-16T08:39:54.294Z,97485.06
2023-04-16T08:42:30.717Z,97478.50
2023-04-16T08:45:09.526Z,97491.06
2023-04-16T08:47:39.208Z,97484.91
2023-04-16T08:50:12.208Z,97492.72
2023-04-16T08:52:47.775Z,97496.00
2023-04-16T08:55:19.823Z,97496.84
2023-04-16T08:57:53.696Z,97502.66
2023-04-16T09:00:24.390Z,97501.53
2023-04-16T09:02:54.614Z,97502.72
2023-04-16T09:05:25.965Z,97501.69
2023-04-16T09:07:56.581Z,97503.50
2023-04-16T09:10:29.951Z,97503.47
2023-04-16T09:12:59.788Z,97504.66
2023-04-16T09:15:32.018Z,97506.88
2023-04-16T09:18:02.985Z,97505.69
2023-04-16T09:20:32.966Z,97505.69
2023-04-16T09:23:03.189Z,97505.22
2023-04-16T09:25:37.540Z,97503.59
2023-04-16T09:28:08.063Z,97501.50
2023-04-16T09:30:38.009Z,97505.75
2023-04-16T09:33:23.289Z,97502.19
2023-04-16T09:35:54.534Z,97500.66
2023-04-16T09:38:26.776Z,97505.38
2023-04-16T09:41:10.259Z,97504.88
2023-04-16T09:43:40.873Z,97509.59
2023-04-16T09:46:14.669Z,97504.75
2023-04-16T09:48:48.334Z,97498.78
2023-04-16T09:51:18.612Z,97507.63
2023-04-16T09:53:49.101Z,97506.28
2023-04-16T09:56:21.802Z,97500.72
2023-04-16T09:58:52.282Z,97498.50
2023-04-16T10:01:22.204Z,97500.41
2023-04-16T10:03:52.696Z,97503.50
2023-04-16T10:06:24.226Z,97491.25
2023-04-16T10:08:57.295Z,97490.94
2023-04-16T10:11:29.363Z,97501.13
2023-04-16T10:13:59.266Z,97493.44
2023-04-16T10:16:29.309Z,97496.75
2023-04-16T10:18:59.915Z,97499.81
2023-04-16T10:21:34.535Z,97490.53
2023-04-16T10:24:05.802Z,97489.50
2023-04-16T10:26:41.167Z,97487.66
2023-04-16T10:29:11.912Z,97480.03
2023-04-16T10:31:43.365Z,97485.56
2023-04-16T10:34:14.132Z,97476.19
2023-04-16T10:36:48.547Z,97481.75
2023-04-16T10:39:23.342Z,97464.88
2023-04-16T10:42:12.154Z,97468.78
2023-04-16T10:44:45.275Z,97467.78
2023-04-16T10:47:15.939Z,97472.91
2023-04-16T10:49:46.850Z,97469.66
2023-04-16T10:52:18.748Z,97467.53
2023-04-16T10:54:50.227Z,97469.81
2023-04-16T10:57:24.159Z,97469.00
2023-04-16T10:59:56.969Z,97464.00
2023-04-16T11:02:32.438Z,97463.44
2023-04-16T11:05:04.935Z,97468.88
2023-04-16T11:07:37.882Z,97471.50
2023-04-16T11:10:09.249Z,97470.13
2023-04-16T11:12:42.967Z,97466.72
2023-04-16T11:15:19.409Z,97470.84
2023-04-16T11:17:52.995Z,97468.41
2023-04-16T11:20:26.259Z,97461.34
2023-04-16T11:22:58.140Z,97456.59
2023-04-16T11:25:30.335Z,97461.69
2023-04-16T11:28:06.554Z,97451.53
2023-04-16T11:30:38.664Z,97456.63
2023-04-16T11:33:11.455Z,97455.75
2023-04-16T11:35:43.644Z,97455.28
2023-04-16T11:38:14.508Z,97455.69
2023-04-16T11:40:48.485Z,97446.91
2023-04-16T11:43:20.328Z,97450.22
2023-04-16T11:45:59.906Z,97442.06
2023-04-16T11:48:51.674Z,97442.91
2023-04-16T11:51:24.253Z,97446.22
2023-04-16T11:53:56.765Z,97444.34
2023-04-16T11:56:31.255Z,97443.88
2023-04-16T11:59:18.872Z,97451.22
2023-04-16T12:01:51.291Z,97447.78
2023-04-16T12:04:25.200Z,97447.88
2023-04-16T12:07:13.274Z,97453.56
2023-04-16T12:09:45.352Z,97454.63
2023-04-16T12:12:31.869Z,97448.19
2023-04-16T12:15:05.702Z,97454.63
2023-04-16T12:17:36.926Z,97454.72
2023-04-16T12:20:13.128Z,97449.97
2023-04-16T12:22:50.227Z,97450.41
2023-04-16T12:25:22.824Z,97454.22
2023-04-16T12:27:56.002Z,97443.34
2023-04-16T12:30:28.597Z,97443.50
2023-04-16T12:33:17.460Z,97443.88
2023-04-16T12:35:48.777Z,97440.84
2023-04-16T12:38:31.252Z,97443.56
2023-04-16T12:41:02.816Z,97438.56
2023-04-16T12:43:33.737Z,97437.94
2023-04-16T12:46:07.100Z,97433.16
2023-04-16T12:48:38.170Z,97432.03
2023-04-16T12:51:09.278Z,97428.00
2023-04-16T12:53:41.616Z,97430.78
2023-04-16T12:56:11.606Z,97435.88
2023-04-16T12:58:43.108Z,97438.75
2023-04-16T13:01:14.371Z,97437.22
2023-04-16T13:03:45.840Z,97438.78
2023-04-16T13:06:18.611Z,97445.38
2023-04-16T13:08:50.011Z,97447.03
2023-04-16T13:11:20.984Z,97443.66
2023-04-16T13:13:51.159Z,97444.56
2023-04-16T13:16:23.814Z,97437.31
2023-04-16T13:18:54.949Z,97434.31
2023-04-16T13:21:27.369Z,97437.50
2023-04-16T13:23:57.306Z,97434.13
2023-04-16T13:26:26.713Z,97438.56
2023-04-16T13:28:57.454Z,97441.53
2023-04-16T13:31:30.558Z,97441.84
2023-04-16T13:34:02.055Z,97436.97
2023-04-16T13:36:34.576Z,97442.13
2023-04-16T13:39:11.510Z,97439.47
2023-04-16T13:41:42.096Z,97447.91
2023-04-16T13:44:13.338Z,97445.03
2023-04-16T13:46:48.181Z,97445.19
2023-04-16T13:49:20.087Z,97450.41
2023-04-16T13:51:53.156Z,97445.41
2023-04-16T13:54:23.593Z,97447.84
2023-04-16T13:56:54.066Z,97450.06
2023-04-16T13:59:24.314Z,97452.00
2023-04-16T14:01:55.717Z,97449.44
2023-04-16T14:04:29.208Z,97456.53
2023-04-16T14:06:59.639Z,97453.50
2023-04-16T14:09:31.076Z,97457.84
2023-04-16T14:12:00.816Z,97456.41
2023-04-16T14:14:32.664Z,97458.00
2023-04-16T14:17:04.614Z,97461.75
2023-04-16T14:19:35.170Z,97449.28
2023-04-16T14:22:08.783Z,97463.16
2023-04-16T14:24:40.300Z,97456.16
2023-04-16T14:27:11.467Z,97447.91
2023-04-16T14:29:42.262Z,97448.72
2023-04-16T14:32:14.175Z,97456.47
2023-04-16T14:34:45.930Z,97452.94
2023-04-16T14:37:19.173Z,97459.03
2023-04-16T14:39:49.653Z,97453.69
2023-04-16T14:42:20.717Z,97455.28
2023-04-16T14:44:52.970Z,97459.81
2023-04-16T14:47:36.937Z,97459.00
2023-04-16T14:50:10.849Z,97460.31
2023-04-16T14:52:41.412Z,97459.81
2023-04-16T14:55:13.210Z,97462.75
2023-04-16T14:57:44.448Z,97468.88
2023-04-16T15:00:19.186Z,97463.63
2023-04-16T15:02:52.314Z,97469.41
2023-04-16T15:05:23.522Z,97471.28
2023-04-16T15:07:54.422Z,97473.56
2023-04-16T15:10:25.114Z,97476.34
2023-04-16T15:12:57.177Z,97486.81
2023-04-16T15:15:28.359Z,97481.75
2023-04-16T15:18:00.829Z,97484.09
2023-04-16T15:20:32.046Z,97490.63
2023-04-16T15:23:02.720Z,97488.50
2023-04-16T15:25:33.412Z,97490.97
2023-04-16T15:28:04.035Z,97497.78
2023-04-16T15:30:34.763Z,97497.75
2023-04-16T15:33:07.809Z,97500.25
2023-04-16T15:35:42.232Z,97497.44
2023-04-16T15:38:15.143Z,97497.69
2023-04-16T15:40:45.940Z,97503.78
2023-04-16T15:43:17.570Z,97500.03
2023-04-16T15:45:49.279Z,97502.63
2023-04-16T15:48:24.643Z,97502.97
2023-04-16T15:50:55.948Z,97500.50
2023-04-16T15:53:26.657Z,97506.94
2023-04-16T15:55:58.814Z,97501.34
2023-04-16T15:58:30.108Z,97515.97
2023-04-16T16:01:01.392Z,97511.25
2023-04-16T16:03:38.442Z,97506.34
2023-04-16T16:06:09.689Z,97521.28
2023-04-16T16:08:40.025Z,97514.88
2023-04-16T16:11:11.102Z,97527.97
2023-04-16T16:13:42.029Z,97524.91
2023-04-16T16:16:12.788Z,97527.75
2023-04-16T16:18:45.605Z,97531.25
2023-04-16T16:21:15.652Z,97527.97
2023-04-16T16:23:46.512Z,97536.53
2023-04-16T16:26:18.238Z,97535.94
2023-04-16T16:28:48.908Z,97537.72
2023-04-16T16:31:22.209Z,97545.34
2023-04-16T16:33:55.825Z,97550.19
2023-04-16T16:36:28.069Z,97540.69
2023-04-16T16:38:57.654Z,97544.22
2023-04-16T16:41:28.801Z,97547.66
2023-04-16T16:44:02.865Z,97553.25
2023-04-16T16:46:34.500Z,97546.63
2023-04-16T16:49:09.728Z,97550.00
2023-04-16T16:51:42.079Z,97546.84
2023-04-16T16:54:12.397Z,97550.50
2023-04-16T16:56:45.679Z,97555.31
2023-04-16T16:59:16.890Z,97545.00
2023-04-16T17:01:47.838Z,97549.97
2023-04-16T17:04:21.172Z,97560.91
2023-04-16T17:06:52.050Z,97557.81
2023-04-16T17:09:22.965Z,97567.13
2023-04-16T17:11:54.919Z,97560.50
2023-04-16T17:14:26.561Z,97569.44
2023-04-16T17:16:59.089Z,97570.28
2023-04-16T17:19:31.387Z,97570.22
2023-04-16T17:22:02.881Z,97565.44
2023-04-16T17:24:33.322Z,97569.28
2023-04-16T17:27:06.566Z,97564.31
2023-04-16T17:29:37.407Z,97561.94
2023-04-16T17:32:11.349Z,97561.22
2023-04-16T17:34:43.693Z,97555.50
2023-04-16T17:37:14.583Z,97557.50
2023-04-16T17:39:44.676Z,97561.66
2023-04-16T17:42:18.171Z,97564.28
2023-04-16T17:44:48.954Z,97567.19
2023-04-16T17:47:19.594Z,97566.75
2023-04-16T17:49:56.076Z,97572.41
2023-04-16T17:52:26.750Z,97578.19
2023-04-16T17:55:01.510Z,97581.78
2023-04-16T17:57:32.853Z,97578.75
2023-04-16T18:00:03.268Z,97593.22
2023-04-16T18:02:35.316Z,97588.00
2023-04-16T18:05:09.530Z,97591.44
2023-04-16T18:07:41.293Z,97590.94
2023-04-16T18:10:13.136Z,97596.09
2023-04-16T18:12:44.960Z,97598.31
2023-04-16T18:15:17.715Z,97607.66
2023-04-16T18:17:49.163Z,97604.56
2023-04-16T18:20:21.909Z,97613.66
2023-04-16T18:22:53.911Z,97607.72
2023-04-16T18:25:33.547Z,97615.06
2023-04-16T18:28:06.491Z,97620.28
2023-04-16T18:30:40.518Z,97614.75
2023-04-16T18:33:43.551Z,97619.00
2023-04-16T18:36:05.947Z,97617.91
2023-04-16T18:38:46.321Z,97619.50
2023-04-16T18:41:35.141Z,97631.19
2023-04-16T18:44:06.231Z,97619.69
2023-04-16T18:46:36.738Z,97625.41
2023-04-16T18:49:09.839Z,97627.75
2023-04-16T18:51:44.677Z,97624.31
2023-04-16T18:54:14.871Z,97626.19
2023-04-16T18:56:44.675Z,97639.50
2023-04-16T18:59:16.923Z,97635.19
2023-04-16T19:01:46.961Z,97631.78
2023-04-16T19:04:18.072Z,97630.38
2023-04-16T19:06:49.750Z,97633.50
2023-04-16T19:09:20.102Z,97637.22
2023-04-16T19:11:51.460Z,97632.44
2023-04-16T19:14:21.978Z,97628.91
2023-04-16T19:16:55.769Z,97629.19
2023-04-16T19:19:26.145Z,97645.00
2023-04-16T19:21:56.966Z,97637.25
2023-04-16T19:24:27.516Z,97625.81
2023-04-16T19:26:58.247Z,97635.81
2023-04-16T19:29:28.565Z,97635.69
2023-04-16T19:31:58.713Z,97636.59
2023-04-16T19:34:28.860Z,97631.19
2023-04-16T19:37:01.727Z,97627.03
2023-04-16T19:39:32.054Z,97630.53
2023-04-16T19:42:03.205Z,97623.28
2023-04-16T19:44:33.509Z,97630.38
2023-04-16T19:47:03.854Z,97625.81
2023-04-16T19:49:34.722Z,97622.16
2023-04-16T19:52:06.589Z,97630.16
2023-04-16T19:54:37.768Z,97623.97
2023-04-16T19:57:07.566Z,97625.06
2023-04-16T19:59:38.543Z,97624.34
2023-04-16T20:02:09.432Z,97630.53
2023-04-16T20:04:39.830Z,97623.25
2023-04-16T20:07:12.071Z,97624.38
2023-04-16T20:09:42.098Z,97629.13
2023-04-16T20:12:15.222Z,97623.81
2023-04-16T20:14:45.399Z,97620.56
2023-04-16T20:17:19.864Z,97619.81
2023-04-16T20:19:51.475Z,97621.38
2023-04-16T20:22:23.182Z,97618.97
2023-04-16T20:24:55.246Z,97623.72
2023-04-16T20:27:26.006Z,97614.41
2023-04-16T20:29:57.328Z,97617.53
2023-04-16T20:32:28.735Z,97611.31
2023-04-16T20:34:59.823Z,97610.97
2023-04-16T20:37:33.220Z,97604.41
2023-04-16T20:40:04.668Z,97609.09
2023-04-16T20:42:36.025Z,97609.06
2023-04-16T20:45:06.845Z,97605.88
2023-04-16T20:47:37.364Z,97603.59
2023-04-16T20:50:08.637Z,97597.44
2023-04-16T20:52:40.388Z,97592.72
2023-04-16T20:55:11.574Z,97588.06
2023-04-16T20:57:42.847Z,97596.63
2023-04-16T21:00:17.151Z,97585.44
2023-04-16T21:02:47.893Z,97595.88
2023-04-16T21:05:22.099Z,97597.72
2023-04-16T21:07:55.917Z,97595.06
2023-04-16T21:10:27.045Z,97591.59
2023-04-16T21:12:57.071Z,97591.94
2023-04-16T21:15:27.196Z,97598.88
2023-04-16T21:17:57.145Z,97602.03
2023-04-16T21:20:28.811Z,97600.44
2023-04-16T21:23:05.584Z,97601.22
2023-04-16T21:25:36.188Z,97600.47
2023-04-16T21:28:07.814Z,97599.75
2023-04-16T21:30:38.922Z,97597.31
2023-04-16T21:33:09.490Z,97602.81
2023-04-16T21:35:39.479Z,97599.84
2023-04-16T21:38:11.848Z,97595.13
2023-04-16T21:40:41.953Z,97592.03
2023-04-16T21:43:12.679Z,97599.69
2023-04-16T21:45:44.058Z,97597.50
2023-04-16T21:48:14.228Z,97598.22
2023-04-16T21:50:47.065Z,97598.28
2023-04-16T21:53:18.180Z,97593.59
2023-04-16T21:55:47.923Z,97590.59
2023-04-16T21:58:18.062Z,97590.41
2023-04-16T22:00:49.065Z,97591.28
2023-04-16T22:03:20.470Z,97595.78
2023-04-16T22:05:50.602Z,97593.16
2023-04-16T22:08:24.834Z,97588.91
2023-04-16T22:10:58.081Z,97594.66
2023-04-16T22:13:28.392Z,97588.50
2023-04-16T22:16:01.739Z,97581.22
2023-04-16T22:18:34.451Z,97592.69
2023-04-16T22:21:04.448Z,97588.91
2023-04-16T22:23:35.424Z,97594.38
2023-04-16T22:26:05.324Z,97592.31
2023-04-16T22:28:35.264Z,97590.41
2023-04-16T22:31:05.208Z,97591.94
2023-04-16T22:33:35.438Z,97589.22
2023-04-16T22:36:08.887Z,97584.97
2023-04-16T22:38:41.213Z,97587.66
2023-04-16T22:41:11.633Z,97591.31
2023-04-16T22:43:41.364Z,97588.59
2023-04-16T22:46:11.620Z,97587.00
2023-04-16T22:48:44.093Z,97580.88
2023-04-16T22:51:14.117Z,97587.44
2023-04-16T22:53:46.928Z,97584.41
2023-04-16T22:56:18.188Z,97586.59
2023-04-16T22:58:49.439Z,97583.63
2023-04-16T23:01:19.488Z,97582.78
2023-04-16T23:03:49.776Z,97583.56
2023-04-16T23:06:20.213Z,97579.72
2023-04-16T23:08:55.989Z,97582.78
2023-04-16T23:11:26.448Z,97578.16
2023-04-16T23:13:56.356Z,97574.38
2023-04-16T23:16:27.370Z,97572.06
2023-04-16T23:18:57.918Z,97570.50
2023-04-16T23:21:28.428Z,97567.03
2023-04-16T23:24:00.341Z,97567.81
2023-04-16T23:26:30.118Z,97568.97
2023-04-16T23:29:01.208Z,97568.63
2023-04-16T23:31:30.825Z,97558.13
2023-04-16T23:34:02.076Z,97554.25
2023-04-16T23:36:32.699Z,97555.44
2023-04-16T23:39:05.037Z,97554.66
2023-04-16T23:41:35.086Z,97551.13
2023-04-16T23:44:05.269Z,97546.50
2023-04-16T23:46:35.496Z,97541.03
2023-04-16T23:49:06.496Z,97535.63
2023-04-16T23:51:36.237Z,97542.53
2023-04-16T23:54:08.149Z,97534.84
2023-04-16T23:56:37.952Z,97531.28
2023-04-16T23:59:11.297Z,97530.88
